createdAt,value
2018-02-20T00:02:18.750Z,71.61
2018-02-20T00:04:47.078Z,71.18
2018-02-20T00:07:15.839Z,71.85
2018-02-20T00:09:44.226Z,72.13
2018-02-20T00:12:13.732Z,72.43
2018-02-20T00:14:43.750Z,72.54
2018-02-20T00:17:12.164Z,72.51
2018-02-20T00:19:40.715Z,72.64
2018-02-20T00:22:09.051Z,72.28
2018-02-20T00:24:37.399Z,72.40
2018-02-20T00:27:05.775Z,72.56
2018-02-20T00:29:34.107Z,73.53
2018-02-20T00:32:02.571Z,73.02
2018-02-20T00:34:30.929Z,72.95
2018-02-20T00:36:59.234Z,73.78
2018-02-20T00:39:27.663Z,73.27
2018-02-20T00:41:56.355Z,72.89
2018-02-20T00:44:24.752Z,72.70
2018-02-20T00:46:53.088Z,72.75
2018-02-20T00:49:22.466Z,73.45
2018-02-20T00:51:51.655Z,73.65
2018-02-20T00:54:20.101Z,73.27
2018-02-20T00:56:48.428Z,73.72
2018-02-20T00:59:17.502Z,73.68
2018-02-20T01:01:46.668Z,73.84
2018-02-20T01:04:14.984Z,73.96
2018-02-20T01:06:43.358Z,74.19
2018-02-20T01:09:11.693Z,73.86
2018-02-20T01:11:40.084Z,74.29
2018-02-20T01:14:09.226Z,74.44
2018-02-20T01:16:38.651Z,74.40
2018-02-20T01:19:06.986Z,75.21
2018-02-20T01:21:35.322Z,75.02
2018-02-20T01:24:03.660Z,75.38
2018-02-20T01:26:32.832Z,75.42
2018-02-20T01:29:01.229Z,74.19
2018-02-20T01:31:30.509Z,72.78
2018-02-20T01:33:59.036Z,72.15
2018-02-20T01:36:27.390Z,72.84
2018-02-20T01:38:56.524Z,72.60
2018-02-20T01:41:24.948Z,72.49
2018-02-20T01:43:54.068Z,72.57
2018-02-20T01:46:23.165Z,73.11
2018-02-20T01:48:52.261Z,74.72
2018-02-20T01:51:21.428Z,74.37
2018-02-20T01:53:50.739Z,75.12
2018-02-20T01:56:19.857Z,74.53
2018-02-20T01:58:48.171Z,75.42
2018-02-20T02:01:16.506Z,75.49
2018-02-20T02:03:44.822Z,75.39
2018-02-20T02:06:13.149Z,76.00
2018-02-20T02:08:41.507Z,75.72
2018-02-20T02:11:10.616Z,76.52
2018-02-20T02:13:39.737Z,76.79
2018-02-20T02:16:08.242Z,76.35
2018-02-20T02:18:36.598Z,76.35
2018-02-20T02:21:04.939Z,77.10
2018-02-20T02:23:34.098Z,77.74
2018-02-20T02:26:02.601Z,77.44
2018-02-20T02:28:30.918Z,76.92
2018-02-20T02:30:59.272Z,77.65
2018-02-20T02:33:28.616Z,76.90
2018-02-20T02:35:56.959Z,76.97
2018-02-20T02:38:26.043Z,76.42
2018-02-20T02:40:55.150Z,77.75
2018-02-20T02:43:23.467Z,76.76
2018-02-20T02:45:51.800Z,77.31
2018-02-20T02:48:20.902Z,77.23
2018-02-20T02:50:49.242Z,77.33
2018-02-20T02:53:17.581Z,77.05
2018-02-20T02:55:45.917Z,77.66
2018-02-20T02:58:15.008Z,77.15
2018-02-20T03:00:45.114Z,76.76
2018-02-20T03:03:13.457Z,76.90
2018-02-20T03:05:41.854Z,76.83
2018-02-20T03:08:10.307Z,77.03
2018-02-20T03:10:39.308Z,76.94
2018-02-20T03:13:07.722Z,76.35
2018-02-20T03:15:36.802Z,76.05
2018-02-20T03:18:05.113Z,75.70
2018-02-20T03:20:33.513Z,76.08
2018-02-20T03:23:01.846Z,76.35
2018-02-20T03:25:30.990Z,76.68
2018-02-20T03:27:59.314Z,76.94
2018-02-20T03:30:28.425Z,76.86
2018-02-20T03:32:56.931Z,76.50
2018-02-20T03:35:25.318Z,77.68
2018-02-20T03:37:53.647Z,77.51
2018-02-20T03:40:21.984Z,77.10
2018-02-20T03:42:50.391Z,77.42
2018-02-20T03:45:18.679Z,78.00
2018-02-20T03:47:47.789Z,77.82
2018-02-20T03:50:16.118Z,76.65
2018-02-20T03:52:44.611Z,76.71
2018-02-20T03:55:12.921Z,76.19
2018-02-20T03:57:41.299Z,76.35
2018-02-20T04:00:09.724Z,75.76
2018-02-20T04:02:38.060Z,75.57
2018-02-20T04:05:06.418Z,74.99
2018-02-20T04:07:34.814Z,73.95
2018-02-20T04:10:03.179Z,73.84
2018-02-20T04:12:32.249Z,74.33
2018-02-20T04:15:01.265Z,72.76
2018-02-20T04:17:30.333Z,72.53
2018-02-20T04:19:59.421Z,73.59
2018-02-20T04:22:27.865Z,73.52
2018-02-20T04:24:56.213Z,73.30
2018-02-20T04:27:24.559Z,72.59
2018-02-20T04:29:54.598Z,72.72
2018-02-20T04:32:23.709Z,72.28
2018-02-20T04:34:52.180Z,72.44
2018-02-20T04:37:20.608Z,73.17
2018-02-20T04:39:48.912Z,72.89
2018-02-20T04:42:18.026Z,73.45
2018-02-20T04:44:47.090Z,72.53
2018-02-20T04:47:15.418Z,72.63
2018-02-20T04:49:43.759Z,73.24
2018-02-20T04:52:12.866Z,72.77
2018-02-20T04:54:41.975Z,73.59
2018-02-20T04:57:10.388Z,73.97
2018-02-20T04:59:39.395Z,73.22
2018-02-20T05:02:08.701Z,72.64
2018-02-20T05:04:37.312Z,73.18
2018-02-20T05:07:06.564Z,73.44
2018-02-20T05:09:34.923Z,72.60
2018-02-20T05:12:03.251Z,72.90
2018-02-20T05:14:32.507Z,73.13
2018-02-20T05:17:01.658Z,73.15
2018-02-20T05:19:29.992Z,73.54
2018-02-20T05:21:58.344Z,72.68
2018-02-20T05:24:26.690Z,71.99
2018-02-20T05:26:55.897Z,72.65
2018-02-20T05:29:24.209Z,72.91
2018-02-20T05:31:52.538Z,73.66
2018-02-20T05:34:24.886Z,74.51
2018-02-20T05:36:53.239Z,74.53
2018-02-20T05:39:21.659Z,73.59
2018-02-20T05:41:50.764Z,73.99
2018-02-20T05:44:19.271Z,74.58
2018-02-20T05:46:47.612Z,74.49
2018-02-20T05:49:16.760Z,73.91
2018-02-20T05:51:46.986Z,72.73
2018-02-20T05:54:15.318Z,72.40
2018-02-20T05:56:43.626Z,72.57
2018-02-20T05:59:12.028Z,72.55
2018-02-20T06:01:41.636Z,73.00
2018-02-20T06:04:11.250Z,74.33
2018-02-20T06:06:41.048Z,74.82
2018-02-20T06:09:10.184Z,75.40
2018-02-20T06:11:40.067Z,74.20
2018-02-20T06:14:08.402Z,73.79
2018-02-20T06:16:36.754Z,73.55
2018-02-20T06:19:05.372Z,73.93
2018-02-20T06:21:35.028Z,74.02
2018-02-20T06:24:03.392Z,74.38
2018-02-20T06:26:31.742Z,74.24
2018-02-20T06:29:00.059Z,74.58
2018-02-20T06:31:29.193Z,74.57
2018-02-20T06:33:57.509Z,74.52
2018-02-20T06:36:26.598Z,75.31
2018-02-20T06:38:55.719Z,74.47
2018-02-20T06:41:24.817Z,74.32
2018-02-20T06:43:53.270Z,74.37
2018-02-20T06:46:21.912Z,73.98
2018-02-20T06:48:50.247Z,74.54
2018-02-20T06:51:19.928Z,74.96
2018-02-20T06:53:49.043Z,74.18
2018-02-20T06:56:18.125Z,73.96
2018-02-20T06:58:46.543Z,74.18
2018-02-20T07:01:14.905Z,73.87
2018-02-20T07:03:44.077Z,73.37
2018-02-20T07:06:13.239Z,73.79
2018-02-20T07:08:41.635Z,73.14
2018-02-20T07:11:10.223Z,74.06
2018-02-20T07:13:38.762Z,74.44
2018-02-20T07:16:07.291Z,73.94
2018-02-20T07:18:37.303Z,73.45
2018-02-20T07:21:07.334Z,72.34
2018-02-20T07:23:36.603Z,73.65
2018-02-20T07:26:05.028Z,73.29
2018-02-20T07:28:34.144Z,73.03
2018-02-20T07:31:02.444Z,71.17
2018-02-20T07:33:30.901Z,70.44
2018-02-20T07:35:59.385Z,71.09
2018-02-20T07:38:27.752Z,70.97
2018-02-20T07:40:56.926Z,70.95
2018-02-20T07:43:26.185Z,72.27
2018-02-20T07:45:54.588Z,71.72
2018-02-20T07:48:23.092Z,69.92
2018-02-20T07:50:51.436Z,70.57
2018-02-20T07:53:19.765Z,70.32
2018-02-20T07:55:48.853Z,71.35
2018-02-20T07:58:17.200Z,71.08
2018-02-20T08:00:46.337Z,70.53
2018-02-20T08:03:15.582Z,70.69
2018-02-20T08:05:44.140Z,71.46
2018-02-20T08:08:12.547Z,71.25
2018-02-20T08:10:41.815Z,70.82
2018-02-20T08:13:10.170Z,71.20
2018-02-20T08:15:38.508Z,71.99
2018-02-20T08:18:07.606Z,71.77
2018-02-20T08:20:36.897Z,70.36
2018-02-20T08:23:05.231Z,70.27
2018-02-20T08:25:33.564Z,69.94
2018-02-20T08:28:02.658Z,69.95
2018-02-20T08:30:31.736Z,70.72
2018-02-20T08:33:00.991Z,69.67
2018-02-20T08:35:29.431Z,70.61
2018-02-20T08:37:57.749Z,69.42
2018-02-20T08:40:26.179Z,69.95
2018-02-20T08:42:55.305Z,69.32
2018-02-20T08:45:24.726Z,69.16
2018-02-20T08:47:53.066Z,68.68
2018-02-20T08:50:22.203Z,69.25
2018-02-20T08:52:50.907Z,69.30
2018-02-20T08:55:20.574Z,68.66
2018-02-20T08:57:48.995Z,68.60
2018-02-20T09:00:18.055Z,68.98
2018-02-20T09:02:47.845Z,67.68
2018-02-20T09:05:16.565Z,67.69
2018-02-20T09:07:44.932Z,68.03
2018-02-20T09:10:13.374Z,66.58
2018-02-20T09:12:41.951Z,67.13
2018-02-20T09:15:10.266Z,67.37
2018-02-20T09:17:38.875Z,66.50
2018-02-20T09:20:08.839Z,65.78
2018-02-20T09:22:37.575Z,65.61
2018-02-20T09:25:07.046Z,65.00
2018-02-20T09:27:35.634Z,64.69
2018-02-20T09:30:04.066Z,64.04
2018-02-20T09:32:33.508Z,63.04
2018-02-20T09:35:03.210Z,62.34
2018-02-20T09:37:32.302Z,63.50
2018-02-20T09:40:02.218Z,63.45
2018-02-20T09:42:30.650Z,61.66
2018-02-20T09:45:00.096Z,60.87
2018-02-20T09:47:28.949Z,58.60
2018-02-20T09:49:58.119Z,59.38
2018-02-20T09:52:26.902Z,59.44
2018-02-20T09:54:56.094Z,61.57
2018-02-20T09:57:24.970Z,60.94
2018-02-20T09:59:54.219Z,59.12
2018-02-20T10:02:23.324Z,58.56
2018-02-20T10:04:51.704Z,58.99
2018-02-20T10:07:20.809Z,59.01
2018-02-20T10:09:49.840Z,57.28
2018-02-20T10:12:18.235Z,57.29
2018-02-20T10:14:46.636Z,57.96
2018-02-20T10:17:15.026Z,59.55
2018-02-20T10:19:43.405Z,57.83
2018-02-20T10:22:11.787Z,58.49
2018-02-20T10:24:40.145Z,58.89
2018-02-20T10:27:09.208Z,61.11
2018-02-20T10:29:37.550Z,61.18
2018-02-20T10:32:06.475Z,62.64
2018-02-20T10:34:34.818Z,62.15
2018-02-20T10:37:03.256Z,63.79
2018-02-20T10:39:32.386Z,62.24
2018-02-20T10:42:00.915Z,63.51
2018-02-20T10:44:30.041Z,63.95
2018-02-20T10:46:58.371Z,61.59
2018-02-20T10:49:26.948Z,61.42
2018-02-20T10:51:55.303Z,62.31
2018-02-20T10:54:23.691Z,63.84
2018-02-20T10:56:52.015Z,63.50
2018-02-20T10:59:21.140Z,62.30
2018-02-20T11:01:49.631Z,63.65
2018-02-20T11:04:18.250Z,62.21
2018-02-20T11:06:46.910Z,62.51
2018-02-20T11:09:16.747Z,63.90
2018-02-20T11:11:45.090Z,62.99
2018-02-20T11:14:13.440Z,63.07
2018-02-20T11:16:41.960Z,63.36
2018-02-20T11:19:10.419Z,63.63
2018-02-20T11:21:38.758Z,62.75
2018-02-20T11:24:07.871Z,62.74
2018-02-20T11:26:36.374Z,62.99
2018-02-20T11:29:05.482Z,60.83
2018-02-20T11:31:33.824Z,60.99
2018-02-20T11:34:02.324Z,60.89
2018-02-20T11:36:32.871Z,60.60
2018-02-20T11:39:02.295Z,61.72
2018-02-20T11:41:30.664Z,61.10
2018-02-20T11:43:58.987Z,62.09
2018-02-20T11:46:27.311Z,62.59
2018-02-20T11:48:55.659Z,62.91
2018-02-20T11:51:23.991Z,62.75
2018-02-20T11:56:26.788Z,61.63
2018-02-20T11:58:55.987Z,61.50
2018-02-20T12:01:25.129Z,60.37
2018-02-20T12:03:53.507Z,60.15
2018-02-20T12:06:21.862Z,61.19
2018-02-20T12:08:50.320Z,61.31
2018-02-20T12:11:20.149Z,61.79
2018-02-20T12:13:48.642Z,62.11
2018-02-20T12:16:16.973Z,62.27
2018-02-20T12:18:45.339Z,61.31
2018-02-20T12:21:13.730Z,60.64
2018-02-20T12:23:42.832Z,60.94
2018-02-20T12:26:11.965Z,60.14
2018-02-20T12:28:40.361Z,61.73
2018-02-20T12:31:09.363Z,62.66
2018-02-20T12:33:37.739Z,62.38
2018-02-20T12:36:06.082Z,62.14
2018-02-20T12:38:34.697Z,61.27
2018-02-20T12:41:03.912Z,61.43
2018-02-20T12:43:33.101Z,61.55
2018-02-20T12:46:01.576Z,62.77
2018-02-20T12:48:29.900Z,60.80
2018-02-20T12:50:58.305Z,61.34
2018-02-20T12:53:26.635Z,61.52
2018-02-20T12:55:55.802Z,61.06
2018-02-20T12:58:24.192Z,60.84
2018-02-20T13:00:52.594Z,60.75
2018-02-20T13:03:21.741Z,60.92
2018-02-20T13:05:50.100Z,60.50
2018-02-20T13:08:18.571Z,60.21
2018-02-20T13:10:46.940Z,58.47
2018-02-20T13:13:15.512Z,59.90
2018-02-20T13:15:43.921Z,59.78
2018-02-20T13:18:12.276Z,59.91
2018-02-20T13:20:41.105Z,59.44
2018-02-20T13:23:09.671Z,59.05
2018-02-20T13:25:38.142Z,58.01
2018-02-20T13:28:07.099Z,58.50
2018-02-20T13:30:35.894Z,57.49
2018-02-20T13:33:04.896Z,56.91
2018-02-20T13:35:33.746Z,57.95
2018-02-20T13:38:03.455Z,56.61
2018-02-20T13:40:31.834Z,57.54
2018-02-20T13:43:00.882Z,57.75
2018-02-20T13:45:29.815Z,58.04
2018-02-20T13:47:59.288Z,57.12
2018-02-20T13:50:28.056Z,57.11
2018-02-20T13:52:58.079Z,57.11
2018-02-20T13:55:27.620Z,56.23
2018-02-20T13:57:56.272Z,56.51
2018-02-20T14:00:25.170Z,56.00
2018-02-20T14:02:54.028Z,56.80
2018-02-20T14:05:23.136Z,56.61
2018-02-20T14:07:52.068Z,56.60
2018-02-20T14:10:20.933Z,56.33
2018-02-20T14:12:53.702Z,57.33
2018-02-20T14:15:22.336Z,57.02
2018-02-20T14:17:52.374Z,57.18
2018-02-20T14:20:21.526Z,56.79
2018-02-20T14:22:50.075Z,56.56
2018-02-20T14:25:19.180Z,57.35
2018-02-20T14:27:47.927Z,55.85
2018-02-20T14:30:17.358Z,56.64
2018-02-20T14:32:54.291Z,56.37
2018-02-20T14:35:23.978Z,57.21
2018-02-20T14:37:52.958Z,56.90
2018-02-20T14:40:22.944Z,58.20
2018-02-20T14:42:55.304Z,56.54
2018-02-20T14:45:24.117Z,56.85
2018-02-20T14:47:53.792Z,56.57
2018-02-20T14:50:25.145Z,57.53
2018-02-20T14:52:54.271Z,57.80
2018-02-20T14:55:24.241Z,57.38
2018-02-20T14:57:53.635Z,57.92
2018-02-20T15:00:23.833Z,58.34
2018-02-20T15:02:52.535Z,57.49
2018-02-20T15:05:21.486Z,58.80
2018-02-20T15:07:51.307Z,58.30
2018-02-20T15:10:20.190Z,59.09
2018-02-20T15:12:50.456Z,59.28
2018-02-20T15:15:19.705Z,58.64
2018-02-20T15:17:48.498Z,59.37
2018-02-20T15:20:17.503Z,61.26
2018-02-20T15:22:47.428Z,61.64
2018-02-20T15:25:16.476Z,62.28
2018-02-20T15:27:45.137Z,61.83
2018-02-20T15:30:14.741Z,62.51
2018-02-20T15:32:44.499Z,63.66
2018-02-20T15:35:14.182Z,62.96
2018-02-20T15:37:43.116Z,62.16
2018-02-20T15:40:11.742Z,63.11
2018-02-20T15:42:40.439Z,63.23
2018-02-20T15:45:09.243Z,62.98
2018-02-20T15:47:38.080Z,62.79
2018-02-20T15:50:08.351Z,62.48
2018-02-20T15:52:37.137Z,63.07
2018-02-20T15:55:07.338Z,63.09
2018-02-20T15:57:36.458Z,62.84
2018-02-20T16:00:05.411Z,63.66
2018-02-20T16:02:35.168Z,63.77
2018-02-20T16:05:03.941Z,64.25
2018-02-20T16:07:33.058Z,64.19
2018-02-20T16:10:03.229Z,64.57
2018-02-20T16:12:31.911Z,64.55
2018-02-20T16:15:00.626Z,65.06
2018-02-20T16:17:29.671Z,64.72
2018-02-20T16:19:59.832Z,64.17
2018-02-20T16:22:28.719Z,64.19
2018-02-20T16:24:57.205Z,63.78
2018-02-20T16:27:26.840Z,64.55
2018-02-20T16:29:55.793Z,64.24
2018-02-20T16:32:24.348Z,64.05
2018-02-20T16:34:53.756Z,63.69
2018-02-20T16:37:22.573Z,64.12
2018-02-20T16:39:52.686Z,63.83
2018-02-20T16:42:21.576Z,63.88
2018-02-20T16:44:50.191Z,63.85
2018-02-20T16:47:20.175Z,64.02
2018-02-20T16:49:49.070Z,64.31
2018-02-20T16:52:18.682Z,64.93
2018-02-20T16:54:49.515Z,63.50
2018-02-20T16:57:18.386Z,63.02
2018-02-20T16:59:46.982Z,63.57
2018-02-20T17:02:15.665Z,63.18
2018-02-20T17:04:44.248Z,62.59
2018-02-20T17:07:12.666Z,61.98
2018-02-20T17:09:42.033Z,62.16
2018-02-20T17:12:10.652Z,62.77
2018-02-20T17:14:39.644Z,62.59
2018-02-20T17:17:09.024Z,61.67
2018-02-20T17:19:37.555Z,61.20
2018-02-20T17:22:06.169Z,61.18
2018-02-20T17:24:35.261Z,61.44
2018-02-20T17:27:04.008Z,61.02
2018-02-20T17:29:32.725Z,60.84
2018-02-20T17:32:02.680Z,60.68
2018-02-20T17:34:36.606Z,60.92
2018-02-20T17:37:07.339Z,60.91
2018-02-20T17:39:38.549Z,60.46
2018-02-20T17:42:09.005Z,61.29
2018-02-20T17:44:40.309Z,60.86
2018-02-20T17:47:11.679Z,61.11
2018-02-20T17:49:41.455Z,60.99
2018-02-20T17:52:10.460Z,60.83
2018-02-20T17:54:40.525Z,60.10
2018-02-20T17:57:09.616Z,60.36
2018-02-20T17:59:39.839Z,60.61
2018-02-20T18:02:09.337Z,60.88
2018-02-20T18:04:38.129Z,61.54
2018-02-20T18:07:08.430Z,60.87
2018-02-20T18:09:37.872Z,61.27
2018-02-20T18:12:06.633Z,61.67
2018-02-20T18:14:35.244Z,61.65
2018-02-20T18:17:03.879Z,61.61
2018-02-20T18:19:32.725Z,62.02
2018-02-20T18:22:01.386Z,62.08
2018-02-20T18:24:30.835Z,61.75
2018-02-20T18:26:59.633Z,62.61
2018-02-20T18:29:28.458Z,63.46
2018-02-20T18:31:57.665Z,63.91
2018-02-20T18:34:26.686Z,62.18
2018-02-20T18:36:55.333Z,62.91
2018-02-20T18:39:24.129Z,62.27
2018-02-20T18:41:54.142Z,62.85
2018-02-20T18:44:22.691Z,63.30
2018-02-20T18:46:51.436Z,62.43
2018-02-20T18:49:20.050Z,62.61
2018-02-20T18:51:50.297Z,62.76
2018-02-20T18:54:19.045Z,62.86
2018-02-20T18:56:48.579Z,62.58
2018-02-20T18:59:17.217Z,63.18
2018-02-20T19:01:45.728Z,62.28
2018-02-20T19:04:14.593Z,62.25
2018-02-20T19:06:43.477Z,62.77
2018-02-20T19:09:13.406Z,62.69
2018-02-20T19:11:43.519Z,64.40
2018-02-20T19:14:12.175Z,62.32
2018-02-20T19:16:40.945Z,62.11
2018-02-20T19:19:09.577Z,62.64
2018-02-20T19:21:38.400Z,63.55
2018-02-20T19:24:07.673Z,62.11
2018-02-20T19:26:36.727Z,62.98
2018-02-20T19:29:06.308Z,62.31
2018-02-20T19:31:35.137Z,63.74
2018-02-20T19:34:05.611Z,61.96
2018-02-20T19:36:34.482Z,62.76
2018-02-20T19:39:04.915Z,62.38
2018-02-20T19:41:33.693Z,62.45
2018-02-20T19:44:02.654Z,62.32
2018-02-20T19:46:31.747Z,61.87
2018-02-20T19:49:00.302Z,61.98
2018-02-20T19:51:29.222Z,63.01
2018-02-20T19:53:58.150Z,62.23
2018-02-20T19:56:26.690Z,63.97
2018-02-20T19:58:56.510Z,62.66
2018-02-20T20:01:25.032Z,62.88
2018-02-20T20:03:53.574Z,62.81
2018-02-20T20:06:22.454Z,63.58
2018-02-20T20:08:51.414Z,62.66
2018-02-20T20:11:20.928Z,62.50
2018-02-20T20:13:49.540Z,63.35
2018-02-20T20:16:18.167Z,62.62
2018-02-20T20:18:47.690Z,62.91
2018-02-20T20:21:16.308Z,62.47
2018-02-20T20:23:45.076Z,62.42
2018-02-20T20:26:14.563Z,62.18
2018-02-20T20:28:43.687Z,62.89
2018-02-20T20:31:12.205Z,62.36
2018-02-20T20:33:41.075Z,62.31
2018-02-20T20:36:09.944Z,62.04
2018-02-20T20:38:38.508Z,62.63
2018-02-20T20:41:07.213Z,63.44
2018-02-20T20:43:35.767Z,62.58
2018-02-20T20:46:04.251Z,61.62
2018-02-20T20:48:33.057Z,62.72
2018-02-20T20:51:01.888Z,61.56
2018-02-20T20:53:30.836Z,61.42
2018-02-20T20:55:59.441Z,61.81
2018-02-20T20:58:29.974Z,62.20
2018-02-20T21:00:59.325Z,61.96
2018-02-20T21:03:27.873Z,61.27
2018-02-20T21:05:57.213Z,61.28
2018-02-20T21:08:25.772Z,61.25
2018-02-20T21:10:54.929Z,62.21
2018-02-20T21:13:24.413Z,59.88
2018-02-20T21:15:54.092Z,60.84
2018-02-20T21:18:22.493Z,60.53
2018-02-20T21:20:51.037Z,60.71
2018-02-20T21:23:20.479Z,60.66
2018-02-20T21:25:49.133Z,60.84
2018-02-20T21:28:17.509Z,61.59
2018-02-20T21:30:46.609Z,60.34
2018-02-20T21:33:14.938Z,60.82
2018-02-20T21:35:43.401Z,60.85
2018-02-20T21:38:11.867Z,59.70
2018-02-20T21:40:40.203Z,59.66
2018-02-20T21:43:10.423Z,59.76
2018-02-20T21:45:39.524Z,59.19
2018-02-20T21:48:08.690Z,58.77
2018-02-20T21:50:37.904Z,59.77
2018-02-20T21:53:07.045Z,58.46
2018-02-20T21:55:35.421Z,60.77
2018-02-20T21:58:03.973Z,59.44
2018-02-20T22:00:33.998Z,59.92
2018-02-20T22:03:02.710Z,59.59
2018-02-20T22:05:31.617Z,58.32
2018-02-20T22:07:59.988Z,59.53
2018-02-20T22:10:28.623Z,58.92
2018-02-20T22:12:57.291Z,58.95
2018-02-20T22:15:25.740Z,58.94
2018-02-20T22:17:54.277Z,59.59
2018-02-20T22:20:23.161Z,60.14
2018-02-20T22:22:54.423Z,59.32
2018-02-20T22:25:23.214Z,59.32
2018-02-20T22:27:52.020Z,59.18
2018-02-20T22:30:20.565Z,60.11
2018-02-20T22:32:49.329Z,59.97
2018-02-20T22:35:19.522Z,60.36
2018-02-20T22:37:48.095Z,59.85
2018-02-20T22:40:17.348Z,59.78
2018-02-20T22:42:46.440Z,60.44
2018-02-20T22:45:15.113Z,59.65
2018-02-20T22:47:44.320Z,60.97
2018-02-20T22:50:12.729Z,61.65
2018-02-20T22:52:42.239Z,60.74
2018-02-20T22:55:11.439Z,62.24
2018-02-20T22:57:39.927Z,63.15
2018-02-20T23:00:09.145Z,63.33
2018-02-20T23:02:39.771Z,62.11
2018-02-20T23:05:08.991Z,64.07
2018-02-20T23:07:38.604Z,65.71
2018-02-20T23:10:07.325Z,65.47
2018-02-20T23:12:36.428Z,66.22
2018-02-20T23:15:04.927Z,65.27
2018-02-20T23:17:33.260Z,65.34
2018-02-20T23:20:01.743Z,65.67
2018-02-20T23:22:30.209Z,65.84
2018-02-20T23:24:58.648Z,66.85
2018-02-20T23:27:27.023Z,67.08
2018-02-20T23:29:56.434Z,67.25
2018-02-20T23:32:24.777Z,67.48
2018-02-20T23:34:53.122Z,68.26
2018-02-20T23:37:22.400Z,67.51
2018-02-20T23:39:52.247Z,67.83
2018-02-20T23:42:20.769Z,69.09
2018-02-20T23:44:49.083Z,69.02
2018-02-20T23:47:22.085Z,68.17
2018-02-20T23:49:50.976Z,69.35
2018-02-20T23:52:21.180Z,68.49
2018-02-20T23:54:49.810Z,69.00
2018-02-20T23:57:18.674Z,69.10
2018-02-20T23:59:47.017Z,69.71
